Decoded Metar for KMHE (MITCHELL in SD, USA) (IATA:MHE) | Meteo·Mobile Aviation Weather
aviador You're here:

KMHE Decoded Metar

MITCHELL in SD, USA
Report Time2019-04-20 23:53:00
UTC Time2019-04-21 00:32:57
Flight Rules vfr VFR
Wind140° at 11 kt
W.Decomp.*RWY 12: 10.7 kt HW 2.5 kt RCW
RWY 17: 8.8 kt HW 6.6 kt LCW
Visibility9999 m
Phenomena:N/A
Clouds:N/A
Expected CloudBase > 6,400 ft AGL from Temp-Dew spread
CeilingNone
Temp25°C (ISA +13)
Dew Point09°C (36% RH)
AAT20.8°C
QNH1001 hPa
Density Alt3,317 ft
Elevation1,302 ft
Report Wrong Elevation
Raw Report
KMHE 202353Z AUTO 14011KT 10SM CLR 25/09 A2955 RMK AO2 SLP005
T02500094 10289 20244 56020 $=

Extra information for KMHE:More info

Metar Taf Metar & Taf Last 4 Metars F.Rules Stats Wind Profile Meteogram Temp Stats Airport Information Weather charts Add Link Nearby VenuesMetar ALERT Operation Metar Decoded Social comments

AIRNAV info for KMHE